Terminal Aerodrome Forecast
Issued by NWS Sterling, VA

Current Version | Previous Version | Text Only | Print | Product List | Glossary Off
Versions: 1 2 3 4 5 6 7 8 9 10 11 12 13 14 15 16 17 18 19 20 21 22 23 24

000
FTUS41 KLWX 012058 AAA
TAFDCA
TAF AMD
KDCA 012058Z 0121/0218 10006KT P6SM BKN040
     FM020500 00000KT P6SM BKN040
     FM020900 00000KT P6SM SCT040
     FM021600 01006KT P6SM SCT050=

USA.gov is the U.S. government's official web portal to all federal, state and local government web resources and services.